createdAt,value
2023-03-18T00:02:49.636Z,0.00
2023-03-18T00:07:49.535Z,0.00
2023-03-18T00:12:49.480Z,0.00
2023-03-18T00:17:49.420Z,0.00
2023-03-18T00:22:49.354Z,0.00
2023-03-18T00:27:49.272Z,0.00
2023-03-18T00:32:49.295Z,0.00
2023-03-18T00:37:49.155Z,0.00
2023-03-18T00:42:49.085Z,0.00
2023-03-18T00:47:49.013Z,0.00
2023-03-18T00:52:48.959Z,0.00
2023-03-18T00:57:48.890Z,0.00
2023-03-18T01:02:48.824Z,0.00
2023-03-18T01:07:48.749Z,0.00
2023-03-18T01:12:48.691Z,0.00
2023-03-18T01:17:48.619Z,0.00
2023-03-18T01:22:48.562Z,0.00
2023-03-18T01:27:48.487Z,0.00
2023-03-18T01:32:48.464Z,0.00
2023-03-18T01:37:48.364Z,0.00
2023-03-18T01:42:48.297Z,0.00
2023-03-18T01:47:48.221Z,0.00
2023-03-18T01:52:48.164Z,0.00
2023-03-18T01:57:48.091Z,0.00
2023-03-18T02:02:48.033Z,0.00
2023-03-18T02:07:47.959Z,0.00
2023-03-18T02:12:47.904Z,0.00
2023-03-18T02:17:47.829Z,0.00
2023-03-18T02:22:47.774Z,0.00
2023-03-18T02:27:47.704Z,0.00
2023-03-18T02:32:47.668Z,0.00
2023-03-18T02:37:47.595Z,0.00
2023-03-18T02:42:47.510Z,0.00
2023-03-18T02:47:47.437Z,0.00
2023-03-18T02:52:47.388Z,0.00
2023-03-18T02:57:47.322Z,0.00
2023-03-18T03:02:47.368Z,0.00
2023-03-18T03:07:47.177Z,0.00
2023-03-18T03:12:47.119Z,0.00
2023-03-18T03:17:47.048Z,0.00
2023-03-18T03:22:46.990Z,0.00
2023-03-18T03:27:46.917Z,0.00
2023-03-18T03:32:46.904Z,0.00
2023-03-18T03:37:46.788Z,0.00
2023-03-18T03:42:46.729Z,0.00
2023-03-18T03:47:46.658Z,0.00
2023-03-18T03:52:46.605Z,0.00
2023-03-18T03:57:46.524Z,0.00
2023-03-18T04:02:46.506Z,0.00
2023-03-18T04:07:46.403Z,0.00
2023-03-18T04:12:46.360Z,0.00
2023-03-18T04:17:46.267Z,0.00
2023-03-18T04:22:46.208Z,0.00
2023-03-18T04:27:46.140Z,0.00
2023-03-18T04:32:46.138Z,0.00
2023-03-18T04:37:46.009Z,0.00
2023-03-18T04:42:45.937Z,0.00
2023-03-18T04:47:45.879Z,0.00
2023-03-18T04:52:45.802Z,0.00
2023-03-18T04:57:45.806Z,0.00
2023-03-18T05:02:45.670Z,0.00
2023-03-18T05:07:45.615Z,0.00
2023-03-18T05:12:45.539Z,0.00
2023-03-18T05:17:45.481Z,0.00
2023-03-18T05:22:45.408Z,0.00
2023-03-18T05:27:45.357Z,5.62
2023-03-18T05:32:45.417Z,5.62
2023-03-18T05:37:45.218Z,11.25
2023-03-18T05:42:55.970Z,22.50
2023-03-18T05:47:46.111Z,33.75
2023-03-18T05:52:45.011Z,45.00
2023-03-18T05:57:44.954Z,45.00
2023-03-18T06:02:44.899Z,84.37
2023-03-18T06:07:44.826Z,106.87
2023-03-18T06:12:44.764Z,95.62
2023-03-18T06:17:44.714Z,129.37
2023-03-18T06:22:44.620Z,168.75
2023-03-18T06:27:44.563Z,157.50
2023-03-18T06:32:44.556Z,264.37
2023-03-18T06:37:44.447Z,337.50
2023-03-18T06:42:44.362Z,416.25
2023-03-18T06:47:44.298Z,281.25
2023-03-18T06:52:44.227Z,230.62
2023-03-18T06:57:44.189Z,230.62
2023-03-18T07:02:44.105Z,230.62
2023-03-18T07:07:44.036Z,225.00
2023-03-18T07:12:43.970Z,264.37
2023-03-18T07:17:43.905Z,455.62
2023-03-18T07:22:43.837Z,528.75
2023-03-18T07:27:43.777Z,286.87
2023-03-18T07:32:43.728Z,230.62
2023-03-18T07:37:43.642Z,230.62
2023-03-18T07:42:43.572Z,219.37
2023-03-18T07:47:44.741Z,208.12
2023-03-18T07:52:43.434Z,348.75
2023-03-18T07:57:43.393Z,461.25
2023-03-18T08:02:43.301Z,545.62
2023-03-18T08:07:43.242Z,776.25
2023-03-18T08:12:52.680Z,613.12
2023-03-18T08:17:43.113Z,748.12
2023-03-18T08:22:43.039Z,1681.87
2023-03-18T08:27:43.155Z,736.87
2023-03-18T08:32:42.962Z,2868.75
2023-03-18T08:37:42.858Z,2986.87
2023-03-18T08:42:42.779Z,3037.50
2023-03-18T08:47:42.725Z,2148.75
2023-03-18T08:52:42.661Z,2103.75
2023-03-18T08:57:42.593Z,1968.75
2023-03-18T09:02:42.517Z,1996.87
2023-03-18T09:07:42.468Z,2413.12
2023-03-18T09:12:42.394Z,2683.12
2023-03-18T09:18:00.071Z,3746.25
2023-03-18T09:22:43.283Z,2536.87
2023-03-18T09:27:42.198Z,2722.50
2023-03-18T09:32:42.204Z,2536.87
2023-03-18T09:37:42.070Z,3380.62
2023-03-18T09:42:41.996Z,2964.37
2023-03-18T09:47:41.940Z,3363.75
2023-03-18T09:52:41.866Z,2986.87
2023-03-18T09:57:41.809Z,2767.50
2023-03-18T10:02:41.745Z,3268.12
2023-03-18T10:07:41.682Z,1406.25
2023-03-18T10:12:41.612Z,961.87
2023-03-18T10:17:41.554Z,1372.50
2023-03-18T10:22:41.483Z,1220.62
2023-03-18T10:27:41.423Z,1147.50
2023-03-18T10:32:49.448Z,1035.00
2023-03-18T10:37:41.296Z,911.25
2023-03-18T10:42:41.275Z,2143.12
2023-03-18T10:47:41.185Z,3510.00
2023-03-18T10:52:41.100Z,1147.50
2023-03-18T10:57:41.037Z,1141.87
2023-03-18T11:02:41.002Z,1164.37
2023-03-18T11:07:40.907Z,1108.12
2023-03-18T11:12:40.836Z,1046.25
2023-03-18T11:17:40.794Z,984.37
2023-03-18T11:22:40.703Z,860.62
2023-03-18T11:27:40.653Z,849.37
2023-03-18T11:32:40.716Z,928.12
2023-03-18T11:37:40.516Z,1170.00
2023-03-18T11:42:40.474Z,1507.50
2023-03-18T11:47:40.382Z,1563.75
2023-03-18T11:52:40.310Z,1490.62
2023-03-18T11:57:40.251Z,1192.50
2023-03-18T12:02:40.177Z,1085.62
2023-03-18T12:07:40.137Z,703.12
2023-03-18T12:12:40.048Z,995.62
2023-03-18T12:17:39.994Z,1006.87
2023-03-18T12:22:39.916Z,950.62
2023-03-18T12:27:39.849Z,787.50
2023-03-18T12:32:39.812Z,528.75
2023-03-18T12:37:39.715Z,517.50
2023-03-18T12:42:39.639Z,483.75
2023-03-18T12:47:39.578Z,450.00
2023-03-18T12:52:39.504Z,410.62
2023-03-18T12:57:39.444Z,455.62
2023-03-18T13:02:39.463Z,388.12
2023-03-18T13:07:39.310Z,376.87
2023-03-18T13:12:39.214Z,438.75
2023-03-18T13:17:39.163Z,444.37
2023-03-18T13:22:39.094Z,365.62
2023-03-18T13:27:39.030Z,354.37
2023-03-18T13:32:38.998Z,343.12
2023-03-18T13:37:38.889Z,382.50
2023-03-18T13:42:38.827Z,405.00
2023-03-18T13:47:38.766Z,348.75
2023-03-18T13:52:38.700Z,337.50
2023-03-18T13:57:38.631Z,303.75
2023-03-18T14:02:38.560Z,320.62
2023-03-18T14:07:38.500Z,309.37
2023-03-18T14:12:38.430Z,326.25
2023-03-18T14:17:38.381Z,326.25
2023-03-18T14:22:38.312Z,326.25
2023-03-18T14:27:38.250Z,309.37
2023-03-18T14:32:38.273Z,303.75
2023-03-18T14:37:38.134Z,331.87
2023-03-18T14:42:38.063Z,326.25
2023-03-18T14:47:39.452Z,298.12
2023-03-18T14:52:37.939Z,241.87
2023-03-18T14:57:37.862Z,309.37
2023-03-18T15:02:37.885Z,320.62
2023-03-18T15:07:37.734Z,320.62
2023-03-18T15:12:37.679Z,365.62
2023-03-18T15:17:37.608Z,309.37
2023-03-18T15:22:37.555Z,253.12
2023-03-18T15:27:37.497Z,264.37
2023-03-18T15:32:37.451Z,241.87
2023-03-18T15:37:37.372Z,241.87
2023-03-18T15:42:37.306Z,253.12
2023-03-18T15:47:37.244Z,230.62
2023-03-18T15:52:37.174Z,208.12
2023-03-18T15:57:37.118Z,196.87
2023-03-18T16:02:37.065Z,191.25
2023-03-18T16:07:36.980Z,180.00
2023-03-18T16:12:36.920Z,157.50
2023-03-18T16:17:36.847Z,151.87
2023-03-18T16:22:36.791Z,123.75
2023-03-18T16:27:36.716Z,112.50
2023-03-18T16:32:36.737Z,95.62
2023-03-18T16:37:36.579Z,84.37
2023-03-18T16:42:36.522Z,73.12
2023-03-18T16:47:36.458Z,61.87
2023-03-18T16:52:36.388Z,50.62
2023-03-18T16:57:36.326Z,45.00
2023-03-18T17:02:36.258Z,39.37
2023-03-18T17:07:36.195Z,33.75
2023-03-18T17:12:36.126Z,22.50
2023-03-18T17:17:36.098Z,16.87
2023-03-18T17:22:36.008Z,5.62
2023-03-18T17:27:35.921Z,5.62
2023-03-18T17:32:35.972Z,0.00
2023-03-18T17:37:35.800Z,0.00
2023-03-18T17:42:35.740Z,0.00
2023-03-18T17:47:35.661Z,0.00
2023-03-18T17:52:35.826Z,0.00
2023-03-18T17:57:35.535Z,0.00
2023-03-18T18:02:35.536Z,0.00
2023-03-18T18:07:35.404Z,0.00
2023-03-18T18:12:35.342Z,0.00
2023-03-18T18:17:35.273Z,0.00
2023-03-18T18:22:35.208Z,0.00
2023-03-18T18:27:35.144Z,0.00
2023-03-18T18:32:35.141Z,0.00
2023-03-18T18:37:35.012Z,0.00
2023-03-18T18:42:34.940Z,0.00
2023-03-18T18:47:34.887Z,0.00
2023-03-18T18:52:34.815Z,0.00
2023-03-18T18:57:34.757Z,0.00
2023-03-18T19:02:34.686Z,0.00
2023-03-18T19:08:29.410Z,0.00
2023-03-18T19:13:29.325Z,0.00
2023-03-18T19:18:29.265Z,0.00
2023-03-18T19:23:29.196Z,0.00
2023-03-18T19:28:29.150Z,0.00
2023-03-18T19:33:29.266Z,0.00
2023-03-18T19:38:28.998Z,0.00
2023-03-18T19:43:28.923Z,0.00
2023-03-18T19:48:28.891Z,0.00
2023-03-18T19:53:28.793Z,0.00
2023-03-18T19:58:28.744Z,0.00
2023-03-18T20:03:28.662Z,0.00
2023-03-18T20:08:28.608Z,0.00
2023-03-18T20:13:28.534Z,0.00
2023-03-18T20:19:23.132Z,0.00
2023-03-18T20:24:23.069Z,0.00
2023-03-18T20:29:22.998Z,0.00
2023-03-18T20:34:22.951Z,0.00
2023-03-18T20:39:22.886Z,0.00
2023-03-18T20:44:22.817Z,0.00
2023-03-18T20:49:22.737Z,0.00
2023-03-18T20:54:22.704Z,0.00
2023-03-18T20:59:22.616Z,0.00
2023-03-18T21:04:22.585Z,0.00
2023-03-18T21:09:22.474Z,0.00
2023-03-18T21:15:17.073Z,0.00
2023-03-18T21:20:22.067Z,0.00
2023-03-18T21:25:16.930Z,0.00
2023-03-18T21:32:06.170Z,0.00
2023-03-18T21:37:06.113Z,0.00
2023-03-18T21:42:06.029Z,0.00
2023-03-18T21:47:05.968Z,0.00
2023-03-18T21:52:05.897Z,0.00
2023-03-18T21:57:05.840Z,0.00
2023-03-18T22:02:05.766Z,0.00
2023-03-18T22:07:05.708Z,0.00
2023-03-18T22:12:05.634Z,0.00
2023-03-18T22:17:05.580Z,0.00
2023-03-18T22:22:05.511Z,0.00
2023-03-18T22:27:05.476Z,0.00
2023-03-18T22:32:05.372Z,0.00
2023-03-18T22:37:05.314Z,0.00
2023-03-18T22:42:05.234Z,0.00
2023-03-18T22:47:05.174Z,0.00
2023-03-18T22:52:05.097Z,0.00
2023-03-18T22:57:05.041Z,0.00
2023-03-18T23:02:05.049Z,0.00
2023-03-18T23:07:04.987Z,0.00
2023-03-18T23:12:04.842Z,0.00
2023-03-18T23:17:04.784Z,0.00
2023-03-18T23:22:04.707Z,0.00
2023-03-18T23:27:04.638Z,0.00
2023-03-18T23:32:04.577Z,0.00
2023-03-18T23:37:04.503Z,0.00
2023-03-18T23:42:04.429Z,0.00
2023-03-18T23:47:04.373Z,0.00
2023-03-18T23:52:04.314Z,0.00
2023-03-18T23:57:04.238Z,0.00
